sensor_id;sensor_type;location;lat;lon;timestamp;pressure;altitude;pressure_sealevel;temperature;humidity
51147;BME280;37207;53.060;18.726;2023-05-10T00:00:19;101213.05;;;7.55;58.44
51147;BME280;37207;53.060;18.726;2023-05-10T00:03:06;101215.06;;;7.51;58.25
51147;BME280;37207;53.060;18.726;2023-05-10T00:05:33;101214.40;;;7.48;58.72
51147;BME280;37207;53.060;18.726;2023-05-10T00:07:59;101215.27;;;7.46;58.90
51147;BME280;37207;53.060;18.726;2023-05-10T00:10:26;101211.15;;;7.43;59.07
51147;BME280;37207;53.060;18.726;2023-05-10T00:12:52;101213.00;;;7.42;59.34
51147;BME280;37207;53.060;18.726;2023-05-10T00:15:19;101208.42;;;7.38;59.49
51147;BME280;37207;53.060;18.726;2023-05-10T00:17:46;101210.83;;;7.34;59.48
51147;BME280;37207;53.060;18.726;2023-05-10T00:20:12;101212.31;;;7.32;59.58
51147;BME280;37207;53.060;18.726;2023-05-10T00:22:39;101206.23;;;7.28;59.79
51147;BME280;37207;53.060;18.726;2023-05-10T00:25:06;101202.88;;;7.24;60.00
51147;BME280;37207;53.060;18.726;2023-05-10T00:27:33;101206.58;;;7.22;60.18
51147;BME280;37207;53.060;18.726;2023-05-10T00:29:59;101209.80;;;7.17;60.48
51147;BME280;37207;53.060;18.726;2023-05-10T00:32:26;101203.80;;;7.09;60.69
51147;BME280;37207;53.060;18.726;2023-05-10T00:34:52;101206.42;;;7.02;60.79
51147;BME280;37207;53.060;18.726;2023-05-10T00:37:19;101204.38;;;6.94;61.09
51147;BME280;37207;53.060;18.726;2023-05-10T00:39:46;101205.34;;;6.90;61.40
51147;BME280;37207;53.060;18.726;2023-05-10T00:42:12;101200.71;;;6.86;61.47
51147;BME280;37207;53.060;18.726;2023-05-10T00:44:39;101199.92;;;6.81;61.79
51147;BME280;37207;53.060;18.726;2023-05-10T00:47:06;101202.04;;;6.78;61.86
51147;BME280;37207;53.060;18.726;2023-05-10T00:49:33;101198.25;;;6.75;61.94
51147;BME280;37207;53.060;18.726;2023-05-10T00:52:00;101200.75;;;6.73;62.09
51147;BME280;37207;53.060;18.726;2023-05-10T00:54:28;101198.04;;;6.70;62.11
51147;BME280;37207;53.060;18.726;2023-05-10T00:56:55;101197.23;;;6.68;62.16
51147;BME280;37207;53.060;18.726;2023-05-10T00:59:23;101192.48;;;6.67;62.20
51147;BME280;37207;53.060;18.726;2023-05-10T01:01:50;101190.50;;;6.65;62.20
51147;BME280;37207;53.060;18.726;2023-05-10T01:04:17;101188.36;;;6.63;62.19
51147;BME280;37207;53.060;18.726;2023-05-10T01:06:46;101183.75;;;6.62;62.33
51147;BME280;37207;53.060;18.726;2023-05-10T01:09:12;101184.62;;;6.60;62.19
51147;BME280;37207;53.060;18.726;2023-05-10T01:11:39;101183.23;;;6.57;62.27
51147;BME280;37207;53.060;18.726;2023-05-10T01:14:06;101181.00;;;6.56;62.31
51147;BME280;37207;53.060;18.726;2023-05-10T01:16:36;101178.13;;;6.55;62.45
51147;BME280;37207;53.060;18.726;2023-05-10T01:19:07;101178.98;;;6.53;62.21
51147;BME280;37207;53.060;18.726;2023-05-10T01:29:59;101167.98;;;6.47;62.35
51147;BME280;37207;53.060;18.726;2023-05-10T01:35:12;101167.25;;;6.45;62.46
51147;BME280;37207;53.060;18.726;2023-05-10T01:37:48;101169.88;;;6.46;62.70
51147;BME280;37207;53.060;18.726;2023-05-10T01:40:31;101165.19;;;6.46;62.58
51147;BME280;37207;53.060;18.726;2023-05-10T01:43:04;101164.46;;;6.44;62.40
51147;BME280;37207;53.060;18.726;2023-05-10T01:45:43;101162.86;;;6.43;62.76
51147;BME280;37207;53.060;18.726;2023-05-10T01:48:14;101163.98;;;6.42;62.78
51147;BME280;37207;53.060;18.726;2023-05-10T01:50:43;101163.35;;;6.40;62.78
51147;BME280;37207;53.060;18.726;2023-05-10T01:53:12;101163.39;;;6.39;62.87
51147;BME280;37207;53.060;18.726;2023-05-10T01:55:44;101161.11;;;6.37;62.99
51147;BME280;37207;53.060;18.726;2023-05-10T01:58:14;101159.34;;;6.33;62.84
51147;BME280;37207;53.060;18.726;2023-05-10T02:00:43;101156.90;;;6.31;62.92
51147;BME280;37207;53.060;18.726;2023-05-10T02:03:11;101153.39;;;6.28;62.84
51147;BME280;37207;53.060;18.726;2023-05-10T02:05:41;101147.25;;;6.24;62.82
51147;BME280;37207;53.060;18.726;2023-05-10T02:08:08;101145.88;;;6.21;62.98
51147;BME280;37207;53.060;18.726;2023-05-10T02:10:37;101145.90;;;6.18;63.11
51147;BME280;37207;53.060;18.726;2023-05-10T02:13:07;101150.11;;;6.16;63.32
51147;BME280;37207;53.060;18.726;2023-05-10T02:15:35;101150.88;;;6.14;63.35
51147;BME280;37207;53.060;18.726;2023-05-10T02:18:04;101152.67;;;6.12;63.29
51147;BME280;37207;53.060;18.726;2023-05-10T02:20:33;101149.40;;;6.08;63.36
51147;BME280;37207;53.060;18.726;2023-05-10T02:23:02;101148.20;;;6.07;63.34
51147;BME280;37207;53.060;18.726;2023-05-10T02:25:31;101144.89;;;6.06;63.57
51147;BME280;37207;53.060;18.726;2023-05-10T02:27:59;101142.73;;;6.05;63.60
51147;BME280;37207;53.060;18.726;2023-05-10T02:30:28;101142.94;;;6.06;63.91
51147;BME280;37207;53.060;18.726;2023-05-10T02:32:56;101142.44;;;6.04;63.86
51147;BME280;37207;53.060;18.726;2023-05-10T02:35:25;101141.92;;;6.03;63.86
51147;BME280;37207;53.060;18.726;2023-05-10T02:37:52;101140.68;;;6.00;63.85
51147;BME280;37207;53.060;18.726;2023-05-10T02:40:21;101135.27;;;5.97;64.08
51147;BME280;37207;53.060;18.726;2023-05-10T02:42:52;101140.73;;;5.95;64.15
51147;BME280;37207;53.060;18.726;2023-05-10T02:45:21;101139.47;;;5.93;64.15
51147;BME280;37207;53.060;18.726;2023-05-10T02:47:49;101141.83;;;5.90;64.40
51147;BME280;37207;53.060;18.726;2023-05-10T02:50:17;101138.16;;;5.87;64.46
51147;BME280;37207;53.060;18.726;2023-05-10T02:52:47;101135.30;;;5.85;64.37
51147;BME280;37207;53.060;18.726;2023-05-10T02:55:19;101138.52;;;5.83;64.60
51147;BME280;37207;53.060;18.726;2023-05-10T02:58:06;101135.81;;;5.82;64.64
51147;BME280;37207;53.060;18.726;2023-05-10T03:00:33;101139.52;;;5.81;64.94
51147;BME280;37207;53.060;18.726;2023-05-10T03:03:00;101139.45;;;5.81;64.93
51147;BME280;37207;53.060;18.726;2023-05-10T03:05:27;101138.23;;;5.79;64.94
51147;BME280;37207;53.060;18.726;2023-05-10T03:07:54;101139.99;;;5.78;64.97
51147;BME280;37207;53.060;18.726;2023-05-10T03:10:26;101137.13;;;5.77;64.99
51147;BME280;37207;53.060;18.726;2023-05-10T03:18:06;101140.77;;;5.79;65.11
51147;BME280;37207;53.060;18.726;2023-05-10T03:20:47;101139.88;;;5.80;65.05
51147;BME280;37207;53.060;18.726;2023-05-10T03:25:46;101139.15;;;5.80;65.11
51147;BME280;37207;53.060;18.726;2023-05-10T03:28:15;101138.47;;;5.82;65.04
51147;BME280;37207;53.060;18.726;2023-05-10T03:30:43;101142.09;;;5.84;64.90
51147;BME280;37207;53.060;18.726;2023-05-10T03:33:11;101137.41;;;5.86;64.94
51147;BME280;37207;53.060;18.726;2023-05-10T03:35:40;101135.11;;;5.87;64.88
51147;BME280;37207;53.060;18.726;2023-05-10T03:38:07;101136.47;;;5.89;64.89
51147;BME280;37207;53.060;18.726;2023-05-10T03:40:34;101131.98;;;5.92;64.71
51147;BME280;37207;53.060;18.726;2023-05-10T03:43:01;101138.96;;;6.00;64.82
51147;BME280;37207;53.060;18.726;2023-05-10T03:45:27;101131.51;;;6.07;64.66
51147;BME280;37207;53.060;18.726;2023-05-10T03:47:54;101132.65;;;6.13;64.59
51147;BME280;37207;53.060;18.726;2023-05-10T03:50:21;101132.33;;;6.18;64.53
51147;BME280;37207;53.060;18.726;2023-05-10T03:52:48;101136.56;;;6.23;64.48
51147;BME280;37207;53.060;18.726;2023-05-10T03:55:15;101135.45;;;6.27;64.56
51147;BME280;37207;53.060;18.726;2023-05-10T03:57:42;101139.65;;;6.34;64.54
51147;BME280;37207;53.060;18.726;2023-05-10T04:00:09;101141.95;;;6.40;64.49
51147;BME280;37207;53.060;18.726;2023-05-10T04:02:42;101137.21;;;6.45;64.52
51147;BME280;37207;53.060;18.726;2023-05-10T04:05:12;101138.88;;;6.50;64.32
51147;BME280;37207;53.060;18.726;2023-05-10T04:07:39;101136.17;;;6.53;64.17
51147;BME280;37207;53.060;18.726;2023-05-10T04:10:05;101137.45;;;6.59;64.21
51147;BME280;37207;53.060;18.726;2023-05-10T04:12:32;101131.45;;;6.64;64.18
51147;BME280;37207;53.060;18.726;2023-05-10T04:14:59;101130.38;;;6.78;64.19
51147;BME280;37207;53.060;18.726;2023-05-10T04:17:25;101129.34;;;6.91;64.02
51147;BME280;37207;53.060;18.726;2023-05-10T04:19:52;101129.55;;;7.03;63.85
51147;BME280;37207;53.060;18.726;2023-05-10T04:22:20;101127.36;;;7.09;63.61
51147;BME280;37207;53.060;18.726;2023-05-10T04:24:47;101126.52;;;7.23;63.39
51147;BME280;37207;53.060;18.726;2023-05-10T04:27:14;101125.89;;;7.42;63.30
51147;BME280;37207;53.060;18.726;2023-05-10T04:29:40;101124.36;;;7.55;62.98
51147;BME280;37207;53.060;18.726;2023-05-10T04:32:08;101123.10;;;7.85;62.66
51147;BME280;37207;53.060;18.726;2023-05-10T04:34:37;101120.52;;;8.29;62.39
51147;BME280;37207;53.060;18.726;2023-05-10T04:37:04;101121.23;;;8.57;61.70
51147;BME280;37207;53.060;18.726;2023-05-10T04:39:30;101116.31;;;8.78;60.89
51147;BME280;37207;53.060;18.726;2023-05-10T04:41:57;101123.06;;;9.00;60.37
51147;BME280;37207;53.060;18.726;2023-05-10T04:44:23;101124.02;;;9.34;60.02
51147;BME280;37207;53.060;18.726;2023-05-10T04:46:50;101123.11;;;9.66;59.44
51147;BME280;37207;53.060;18.726;2023-05-10T04:49:17;101119.43;;;9.80;59.22
51147;BME280;37207;53.060;18.726;2023-05-10T04:51:44;101122.14;;;9.87;58.71
51147;BME280;37207;53.060;18.726;2023-05-10T04:54:10;101122.45;;;9.92;58.24
51147;BME280;37207;53.060;18.726;2023-05-10T04:56:37;101123.89;;;9.93;58.05
51147;BME280;37207;53.060;18.726;2023-05-10T04:59:03;101124.27;;;9.97;57.72
51147;BME280;37207;53.060;18.726;2023-05-10T05:01:30;101122.29;;;10.05;57.50
51147;BME280;37207;53.060;18.726;2023-05-10T05:03:57;101119.41;;;10.07;57.10
51147;BME280;37207;53.060;18.726;2023-05-10T05:06:23;101123.85;;;10.12;56.77
51147;BME280;37207;53.060;18.726;2023-05-10T05:08:51;101121.60;;;10.21;56.60
51147;BME280;37207;53.060;18.726;2023-05-10T05:11:17;101122.77;;;10.26;56.76
51147;BME280;37207;53.060;18.726;2023-05-10T05:13:44;101126.26;;;10.28;56.58
51147;BME280;37207;53.060;18.726;2023-05-10T05:16:11;101122.23;;;10.30;56.37
51147;BME280;37207;53.060;18.726;2023-05-10T05:18:37;101122.13;;;10.32;56.53
51147;BME280;37207;53.060;18.726;2023-05-10T05:21:16;101124.36;;;10.33;56.20
51147;BME280;37207;53.060;18.726;2023-05-10T05:23:43;101124.66;;;10.38;56.01
51147;BME280;37207;53.060;18.726;2023-05-10T05:26:10;101123.30;;;10.37;55.80
51147;BME280;37207;53.060;18.726;2023-05-10T05:28:37;101126.55;;;10.36;56.00
51147;BME280;37207;53.060;18.726;2023-05-10T05:31:05;101126.23;;;10.38;55.75
51147;BME280;37207;53.060;18.726;2023-05-10T05:33:32;101125.64;;;10.41;55.94
51147;BME280;37207;53.060;18.726;2023-05-10T05:36:03;101125.26;;;10.46;55.65
51147;BME280;37207;53.060;18.726;2023-05-10T05:38:30;101126.69;;;10.51;55.80
51147;BME280;37207;53.060;18.726;2023-05-10T05:40:57;101121.66;;;10.56;55.75
51147;BME280;37207;53.060;18.726;2023-05-10T05:43:23;101120.71;;;10.62;55.41
51147;BME280;37207;53.060;18.726;2023-05-10T05:45:52;101119.20;;;10.66;55.11
51147;BME280;37207;53.060;18.726;2023-05-10T05:48:20;101120.60;;;10.71;55.26
51147;BME280;37207;53.060;18.726;2023-05-10T05:50:46;101119.85;;;10.77;54.91
51147;BME280;37207;53.060;18.726;2023-05-10T05:53:13;101119.42;;;10.84;54.72
51147;BME280;37207;53.060;18.726;2023-05-10T05:55:39;101119.86;;;10.92;54.50
51147;BME280;37207;53.060;18.726;2023-05-10T05:58:06;101118.75;;;11.00;54.45
51147;BME280;37207;53.060;18.726;2023-05-10T06:00:33;101113.89;;;11.09;54.07
51147;BME280;37207;53.060;18.726;2023-05-10T06:02:59;101114.53;;;11.20;54.24
51147;BME280;37207;53.060;18.726;2023-05-10T06:05:26;101109.41;;;11.31;54.22
51147;BME280;37207;53.060;18.726;2023-05-10T06:07:52;101111.41;;;11.42;53.98
51147;BME280;37207;53.060;18.726;2023-05-10T06:10:19;101111.34;;;11.53;53.70
51147;BME280;37207;53.060;18.726;2023-05-10T06:12:45;101114.98;;;11.65;53.23
51147;BME280;37207;53.060;18.726;2023-05-10T06:15:12;101114.73;;;11.75;53.02
51147;BME280;37207;53.060;18.726;2023-05-10T06:17:38;101117.93;;;11.86;52.45
51147;BME280;37207;53.060;18.726;2023-05-10T06:20:05;101112.82;;;11.98;52.21
51147;BME280;37207;53.060;18.726;2023-05-10T06:22:32;101115.53;;;12.08;51.48
51147;BME280;37207;53.060;18.726;2023-05-10T06:24:59;101114.09;;;12.21;51.39
51147;BME280;37207;53.060;18.726;2023-05-10T06:27:25;101111.44;;;12.35;50.44
51147;BME280;37207;53.060;18.726;2023-05-10T06:29:52;101110.41;;;12.47;49.75
51147;BME280;37207;53.060;18.726;2023-05-10T06:32:19;101104.81;;;12.60;49.81
51147;BME280;37207;53.060;18.726;2023-05-10T06:34:45;101102.11;;;12.75;49.21
51147;BME280;37207;53.060;18.726;2023-05-10T06:37:12;101103.23;;;12.87;47.75
51147;BME280;37207;53.060;18.726;2023-05-10T06:39:39;101100.05;;;13.02;48.14
51147;BME280;37207;53.060;18.726;2023-05-10T06:42:05;101105.33;;;13.15;47.19
51147;BME280;37207;53.060;18.726;2023-05-10T06:44:32;101106.14;;;13.27;46.05
51147;BME280;37207;53.060;18.726;2023-05-10T06:46:58;101101.68;;;13.38;45.89
51147;BME280;37207;53.060;18.726;2023-05-10T06:49:25;101098.21;;;13.50;44.70
51147;BME280;37207;53.060;18.726;2023-05-10T06:51:52;101100.02;;;13.63;45.03
51147;BME280;37207;53.060;18.726;2023-05-10T06:54:18;101102.41;;;13.78;44.28
51147;BME280;37207;53.060;18.726;2023-05-10T06:56:45;101100.67;;;13.92;43.66
51147;BME280;37207;53.060;18.726;2023-05-10T06:59:11;101098.48;;;14.07;43.60
51147;BME280;37207;53.060;18.726;2023-05-10T07:01:39;101100.13;;;14.24;43.07
51147;BME280;37207;53.060;18.726;2023-05-10T07:04:06;101100.27;;;14.40;42.60
51147;BME280;37207;53.060;18.726;2023-05-10T07:06:33;101098.45;;;14.57;42.50
51147;BME280;37207;53.060;18.726;2023-05-10T07:09:00;101106.33;;;14.73;41.42
51147;BME280;37207;53.060;18.726;2023-05-10T07:11:27;101105.34;;;14.84;40.77
51147;BME280;37207;53.060;18.726;2023-05-10T07:13:53;101107.27;;;14.98;40.53
51147;BME280;37207;53.060;18.726;2023-05-10T07:16:20;101107.34;;;15.12;40.81
51147;BME280;37207;53.060;18.726;2023-05-10T07:18:47;101100.71;;;15.30;40.33
51147;BME280;37207;53.060;18.726;2023-05-10T07:21:14;101100.51;;;15.45;39.93
51147;BME280;37207;53.060;18.726;2023-05-10T07:23:41;101101.39;;;15.56;39.23
51147;BME280;37207;53.060;18.726;2023-05-10T07:26:07;101098.39;;;15.69;39.04
51147;BME280;37207;53.060;18.726;2023-05-10T07:28:36;101097.04;;;15.85;39.42
51147;BME280;37207;53.060;18.726;2023-05-10T07:31:03;101098.09;;;16.05;39.57
51147;BME280;37207;53.060;18.726;2023-05-10T07:33:30;101100.92;;;16.19;38.45
51147;BME280;37207;53.060;18.726;2023-05-10T07:35:57;101100.73;;;16.27;38.15
51147;BME280;37207;53.060;18.726;2023-05-10T07:38:24;101104.08;;;16.41;38.36
51147;BME280;37207;53.060;18.726;2023-05-10T07:40:50;101099.14;;;16.58;37.97
51147;BME280;37207;53.060;18.726;2023-05-10T07:43:17;101096.52;;;16.73;38.17
51147;BME280;37207;53.060;18.726;2023-05-10T07:45:43;101097.70;;;16.87;37.64
51147;BME280;37207;53.060;18.726;2023-05-10T07:48:10;101096.80;;;16.98;37.32
51147;BME280;37207;53.060;18.726;2023-05-10T07:50:36;101094.57;;;17.08;36.76
51147;BME280;37207;53.060;18.726;2023-05-10T07:53:03;101094.91;;;17.14;36.21
51147;BME280;37207;53.060;18.726;2023-05-10T07:55:29;101091.65;;;17.22;36.30
51147;BME280;37207;53.060;18.726;2023-05-10T07:57:56;101090.35;;;17.32;36.11
51147;BME280;37207;53.060;18.726;2023-05-10T08:00:23;101090.55;;;17.49;36.53
51147;BME280;37207;53.060;18.726;2023-05-10T08:02:49;101088.27;;;17.61;36.23
51147;BME280;37207;53.060;18.726;2023-05-10T08:05:16;101085.16;;;17.67;35.60
51147;BME280;37207;53.060;18.726;2023-05-10T08:07:42;101089.69;;;17.72;35.82
51147;BME280;37207;53.060;18.726;2023-05-10T08:10:10;101092.23;;;17.83;36.10
51147;BME280;37207;53.060;18.726;2023-05-10T08:12:37;101087.36;;;17.96;35.39
51147;BME280;37207;53.060;18.726;2023-05-10T08:15:05;101086.84;;;18.05;35.25
51147;BME280;37207;53.060;18.726;2023-05-10T08:17:33;101088.00;;;18.10;34.77
51147;BME280;37207;53.060;18.726;2023-05-10T08:19:59;101087.19;;;18.15;35.15
51147;BME280;37207;53.060;18.726;2023-05-10T08:22:26;101086.98;;;18.22;35.30
51147;BME280;37207;53.060;18.726;2023-05-10T08:24:53;101084.91;;;18.41;36.03
51147;BME280;37207;53.060;18.726;2023-05-10T08:27:19;101086.74;;;18.65;36.33
51147;BME280;37207;53.060;18.726;2023-05-10T08:29:46;101084.03;;;18.81;35.90
51147;BME280;37207;53.060;18.726;2023-05-10T08:32:12;101087.02;;;18.90;35.49
51147;BME280;37207;53.060;18.726;2023-05-10T08:34:39;101080.04;;;18.95;35.69
51147;BME280;37207;53.060;18.726;2023-05-10T08:37:05;101082.99;;;19.04;35.96
51147;BME280;37207;53.060;18.726;2023-05-10T08:39:35;101080.69;;;19.15;35.87
51147;BME280;37207;53.060;18.726;2023-05-10T08:42:03;101079.88;;;19.35;35.92
51147;BME280;37207;53.060;18.726;2023-05-10T08:44:32;101082.46;;;19.52;35.27
51147;BME280;37207;53.060;18.726;2023-05-10T08:47:05;101083.95;;;19.56;34.52
51147;BME280;37207;53.060;18.726;2023-05-10T08:49:36;101082.02;;;19.57;35.10
51147;BME280;37207;53.060;18.726;2023-05-10T08:52:03;101087.33;;;19.66;34.57
51147;BME280;37207;53.060;18.726;2023-05-10T08:54:32;101085.38;;;19.77;34.12
51147;BME280;37207;53.060;18.726;2023-05-10T08:57:00;101086.45;;;19.84;34.27
51147;BME280;37207;53.060;18.726;2023-05-10T08:59:27;101085.20;;;19.99;34.59
51147;BME280;37207;53.060;18.726;2023-05-10T09:01:56;101089.02;;;20.10;34.29
51147;BME280;37207;53.060;18.726;2023-05-10T09:04:24;101082.81;;;20.14;33.16
51147;BME280;37207;53.060;18.726;2023-05-10T09:06:51;101079.29;;;20.32;33.68
51147;BME280;37207;53.060;18.726;2023-05-10T09:09:19;101075.88;;;20.56;33.19
51147;BME280;37207;53.060;18.726;2023-05-10T09:11:47;101075.54;;;20.84;32.48
51147;BME280;37207;53.060;18.726;2023-05-10T09:14:14;101075.11;;;21.45;31.82
51147;BME280;37207;53.060;18.726;2023-05-10T09:16:41;101077.42;;;22.14;31.41
51147;BME280;37207;53.060;18.726;2023-05-10T09:19:09;101077.71;;;22.84;29.62
51147;BME280;37207;53.060;18.726;2023-05-10T09:21:36;101074.05;;;23.30;29.01
51147;BME280;37207;53.060;18.726;2023-05-10T09:24:05;101075.16;;;23.14;29.16
51147;BME280;37207;53.060;18.726;2023-05-10T09:26:33;101073.02;;;23.08;29.49
51147;BME280;37207;53.060;18.726;2023-05-10T09:29:00;101074.63;;;23.01;28.83
51147;BME280;37207;53.060;18.726;2023-05-10T09:34:20;101074.14;;;22.66;29.80
51147;BME280;37207;53.060;18.726;2023-05-10T09:36:55;101073.71;;;22.60;29.98
51147;BME280;37207;53.060;18.726;2023-05-10T09:42:01;101062.65;;;22.41;30.08
51147;BME280;37207;53.060;18.726;2023-05-10T09:44:31;101064.01;;;22.42;30.80
51147;BME280;37207;53.060;18.726;2023-05-10T09:46:58;101066.61;;;22.44;30.74
51147;BME280;37207;53.060;18.726;2023-05-10T09:49:24;101064.26;;;22.41;30.91
51147;BME280;37207;53.060;18.726;2023-05-10T09:52:05;101061.80;;;22.25;30.67
51147;BME280;37207;53.060;18.726;2023-05-10T09:54:33;101057.27;;;22.02;31.00
51147;BME280;37207;53.060;18.726;2023-05-10T09:57:01;101054.58;;;21.86;31.17
51147;BME280;37207;53.060;18.726;2023-05-10T09:59:28;101052.96;;;21.78;31.42
51147;BME280;37207;53.060;18.726;2023-05-10T10:01:56;101050.03;;;21.84;32.44
51147;BME280;37207;53.060;18.726;2023-05-10T10:04:23;101052.17;;;21.91;31.87
51147;BME280;37207;53.060;18.726;2023-05-10T10:07:01;101044.67;;;21.87;31.60
51147;BME280;37207;53.060;18.726;2023-05-10T10:09:29;101036.77;;;21.86;31.06
51147;BME280;37207;53.060;18.726;2023-05-10T10:11:55;101034.86;;;21.87;31.59
51147;BME280;37207;53.060;18.726;2023-05-10T10:14:23;101040.75;;;21.88;31.43
51147;BME280;37207;53.060;18.726;2023-05-10T10:16:50;101038.08;;;21.97;31.31
51147;BME280;37207;53.060;18.726;2023-05-10T10:19:21;101029.48;;;22.08;31.32
51147;BME280;37207;53.060;18.726;2023-05-10T10:21:49;101033.98;;;22.21;30.06
51147;BME280;37207;53.060;18.726;2023-05-10T10:24:16;101037.05;;;22.40;30.24
51147;BME280;37207;53.060;18.726;2023-05-10T10:26:43;101029.45;;;22.66;30.34
51147;BME280;37207;53.060;18.726;2023-05-10T10:29:21;101026.73;;;22.95;30.73
51147;BME280;37207;53.060;18.726;2023-05-10T10:34:27;101025.55;;;23.75;29.41
51147;BME280;37207;53.060;18.726;2023-05-10T10:36:57;101025.55;;;24.03;29.59
51147;BME280;37207;53.060;18.726;2023-05-10T10:39:24;101024.73;;;24.36;28.41
51147;BME280;37207;53.060;18.726;2023-05-10T10:41:57;101013.63;;;24.91;27.88
51147;BME280;37207;53.060;18.726;2023-05-10T10:52:27;101017.44;;;28.50;23.74
51147;BME280;37207;53.060;18.726;2023-05-10T10:57:27;101007.05;;;29.73;22.53
51147;BME280;37207;53.060;18.726;2023-05-10T11:00:22;101004.91;;;29.90;21.85
51147;BME280;37207;53.060;18.726;2023-05-10T11:03:03;101002.31;;;29.92;21.51
51147;BME280;37207;53.060;18.726;2023-05-10T11:05:43;101005.69;;;29.93;21.83
51147;BME280;37207;53.060;18.726;2023-05-10T11:10:38;100998.48;;;29.59;21.16
51147;BME280;37207;53.060;18.726;2023-05-10T11:13:07;101005.55;;;29.37;22.10
51147;BME280;37207;53.060;18.726;2023-05-10T11:18:16;101001.61;;;29.06;22.26
51147;BME280;37207;53.060;18.726;2023-05-10T11:20:43;100997.70;;;28.80;22.50
51147;BME280;37207;53.060;18.726;2023-05-10T11:23:13;100992.39;;;28.53;23.06
51147;BME280;37207;53.060;18.726;2023-05-10T11:25:42;100982.00;;;28.19;22.71
51147;BME280;37207;53.060;18.726;2023-05-10T11:28:11;100989.71;;;27.63;22.84
51147;BME280;37207;53.060;18.726;2023-05-10T11:30:39;100990.42;;;27.27;23.87
51147;BME280;37207;53.060;18.726;2023-05-10T11:33:07;100990.63;;;27.11;24.10
51147;BME280;37207;53.060;18.726;2023-05-10T11:35:38;100984.59;;;26.80;24.09
51147;BME280;37207;53.060;18.726;2023-05-10T11:38:07;100987.18;;;26.41;24.17
51147;BME280;37207;53.060;18.726;2023-05-10T11:40:34;100982.83;;;25.97;24.30
51147;BME280;37207;53.060;18.726;2023-05-10T11:43:01;100980.91;;;25.63;25.23
51147;BME280;37207;53.060;18.726;2023-05-10T11:45:29;100973.55;;;25.49;25.55
51147;BME280;37207;53.060;18.726;2023-05-10T11:47:59;100984.30;;;25.27;24.99
51147;BME280;37207;53.060;18.726;2023-05-10T11:50:26;100982.73;;;25.06;25.60
51147;BME280;37207;53.060;18.726;2023-05-10T11:52:54;100982.97;;;25.06;25.80
51147;BME280;37207;53.060;18.726;2023-05-10T11:55:22;100985.37;;;25.11;25.81
51147;BME280;37207;53.060;18.726;2023-05-10T11:57:54;100983.48;;;25.12;25.73
51147;BME280;37207;53.060;18.726;2023-05-10T12:00:21;100977.43;;;25.05;26.03
51147;BME280;37207;53.060;18.726;2023-05-10T12:02:48;100976.88;;;24.99;25.59
51147;BME280;37207;53.060;18.726;2023-05-10T12:05:15;100975.88;;;24.84;26.02
51147;BME280;37207;53.060;18.726;2023-05-10T12:07:42;100974.33;;;24.67;26.34
51147;BME280;37207;53.060;18.726;2023-05-10T12:10:12;100977.63;;;24.76;26.57
51147;BME280;37207;53.060;18.726;2023-05-10T12:12:45;100983.29;;;24.66;26.03
51147;BME280;37207;53.060;18.726;2023-05-10T12:15:18;100982.96;;;24.64;26.52
51147;BME280;37207;53.060;18.726;2023-05-10T12:17:46;100983.05;;;24.75;26.48
51147;BME280;37207;53.060;18.726;2023-05-10T12:20:18;100980.18;;;24.70;25.78
51147;BME280;37207;53.060;18.726;2023-05-10T12:23:00;100978.80;;;24.45;26.06
51147;BME280;37207;53.060;18.726;2023-05-10T12:25:37;100973.16;;;24.32;26.08
51147;BME280;37207;53.060;18.726;2023-05-10T12:28:11;100975.75;;;24.28;26.73
51147;BME280;37207;53.060;18.726;2023-05-10T12:30:38;100966.66;;;24.31;27.12
51147;BME280;37207;53.060;18.726;2023-05-10T12:33:10;100976.16;;;24.36;26.55
51147;BME280;37207;53.060;18.726;2023-05-10T12:35:45;100968.89;;;24.53;26.50
51147;BME280;37207;53.060;18.726;2023-05-10T12:38:44;100965.54;;;24.74;26.73
51147;BME280;37207;53.060;18.726;2023-05-10T12:41:17;100969.06;;;24.84;26.11
51147;BME280;37207;53.060;18.726;2023-05-10T12:43:44;100963.84;;;24.68;25.55
51147;BME280;37207;53.060;18.726;2023-05-10T12:46:16;100961.87;;;24.49;25.90
51147;BME280;37207;53.060;18.726;2023-05-10T12:48:44;100970.66;;;24.57;26.64
51147;BME280;37207;53.060;18.726;2023-05-10T12:51:12;100974.20;;;24.79;26.22
51147;BME280;37207;53.060;18.726;2023-05-10T12:53:41;100967.80;;;24.98;25.64
51147;BME280;37207;53.060;18.726;2023-05-10T12:56:09;100964.32;;;25.09;25.56
51147;BME280;37207;53.060;18.726;2023-05-10T12:58:35;100964.37;;;25.23;25.75
51147;BME280;37207;53.060;18.726;2023-05-10T13:01:02;100968.78;;;25.23;24.94
51147;BME280;37207;53.060;18.726;2023-05-10T13:03:29;100959.30;;;25.13;25.43
51147;BME280;37207;53.060;18.726;2023-05-10T13:05:55;100957.52;;;25.00;24.99
51147;BME280;37207;53.060;18.726;2023-05-10T13:08:22;100956.93;;;24.80;24.94
51147;BME280;37207;53.060;18.726;2023-05-10T13:10:49;100956.80;;;24.62;25.30
51147;BME280;37207;53.060;18.726;2023-05-10T13:13:16;100956.16;;;24.56;25.82
51147;BME280;37207;53.060;18.726;2023-05-10T13:15:42;100949.10;;;24.38;25.30
51147;BME280;37207;53.060;18.726;2023-05-10T13:18:09;100955.42;;;24.04;25.44
51147;BME280;37207;53.060;18.726;2023-05-10T13:20:35;100958.60;;;23.74;26.08
51147;BME280;37207;53.060;18.726;2023-05-10T13:23:02;100957.36;;;23.48;26.18
51147;BME280;37207;53.060;18.726;2023-05-10T13:25:29;100950.26;;;23.26;26.12
51147;BME280;37207;53.060;18.726;2023-05-10T13:27:56;100952.09;;;23.16;26.89
51147;BME280;37207;53.060;18.726;2023-05-10T13:30:22;100944.10;;;23.03;26.71